Airfield :
LOGIN :

Register | Disclaimer

   EN    FR    IT 

 










Legend :    VFR   Marginal VFR   IFR   Intensive IFR   Very Intensive IFR
Visi :
Ceiling :
>= 8 km
>= 3000ft
5 to 8 km
1000 to 3000 ft
1500m to 5 km
500 to 1000 ft
800 to 1500m
200 to 500 ft
< 800m
< 200 ft
Symbols :   Thunderstorms  Fog  Heavy snow  Heavy precipitations  Wind > 20 kt
SIGMETs :     Misc.  Thunderstorms  Icing  Turbulence  Mountain Waves  Volcanic Ashes







- Airport Elevation : 459 ft
- IATA code : CER
- Download approach charts


LFRC - Cherbourg / Maupertus

CURRENT METAR :
  • 241330Z AUTO 14005KT 110V180 CAVOK 19/15 Q1018 TEMPO BKN005 BECMG RA

EXPIRED METARs :
  • 241300Z AUTO 17007KT 9999 BKN026/// BKN068/// BKN092/// ///TCU 18/14 Q1018 TEMPO BKN005
  • 241230Z AUTO 19006KT 160V220 9999 -RA FEW017/// BKN025/// BKN076/// ///TCU 18/14 Q1018 TEMPO BKN005
  • 241200Z AUTO 19008KT 9999 FEW018/// SCT025/// BKN110/// ///TCU 19/14 Q1018 TEMPO BKN005
  • 241130Z AUTO 19006KT 160V220 CAVOK 19/14 Q1018 TEMPO BKN005
  • 241100Z AUTO 17006KT 140V210 CAVOK 19/14 Q1018 NOSIG

TAF TAF LFRC
Valid from the 24 at 12:00 until the 24 at 21:00 UTC


241100Z 2412/2421 20007KT 9999 BKN030
TEMPO 2412/2418 BKN005
BECMG 2415/2418 5000 RA BKN010
TEMPO 2417/2421 3000 RA BKN005
No reported NOTAMs for that airfield.



MET'MAP, your aeronautical weather chart ! - Copyright ORBIFLY December 2007 - Disclaimer

ORBIFLY MET'MAP TEAM :

Programming & Development : Alexandra Zaïnal
Concept & Development : Baudouin d'Aumeries
Co-Development & Prog : Marc-Olivier Méhu
Technical & hardware support : Manuel Goepfert

Contact : metmap@orbifly.com




SOURCES & CREDITS :

   NOAA